sensor_id;sensor_type;location;lat;lon;timestamp;temperature;humidity
53268;DHT22;39156;51.176;6.738;2022-08-21T00:00:40;18.20;60.00
53268;DHT22;39156;51.176;6.738;2022-08-21T00:03:08;18.20;60.00
53268;DHT22;39156;51.176;6.738;2022-08-21T00:05:41;18.20;60.30
53268;DHT22;39156;51.176;6.738;2022-08-21T00:08:10;18.10;60.60
53268;DHT22;39156;51.176;6.738;2022-08-21T00:10:36;18.10;60.30
53268;DHT22;39156;51.176;6.738;2022-08-21T00:13:04;18.10;60.60
53268;DHT22;39156;51.176;6.738;2022-08-21T00:15:32;18.10;60.80
53268;DHT22;39156;51.176;6.738;2022-08-21T00:17:58;18.10;60.80
53268;DHT22;39156;51.176;6.738;2022-08-21T00:20:25;18.10;60.90
53268;DHT22;39156;51.176;6.738;2022-08-21T00:22:51;18.10;61.60
53268;DHT22;39156;51.176;6.738;2022-08-21T00:25:18;18.10;60.80
53268;DHT22;39156;51.176;6.738;2022-08-21T00:27:44;18.10;60.90
53268;DHT22;39156;51.176;6.738;2022-08-21T00:30:13;18.10;60.80
53268;DHT22;39156;51.176;6.738;2022-08-21T00:32:41;18.10;61.10
53268;DHT22;39156;51.176;6.738;2022-08-21T00:35:10;18.10;60.90
53268;DHT22;39156;51.176;6.738;2022-08-21T00:37:39;18.00;60.90
53268;DHT22;39156;51.176;6.738;2022-08-21T00:40:06;18.10;61.10
53268;DHT22;39156;51.176;6.738;2022-08-21T00:42:33;18.00;60.70
53268;DHT22;39156;51.176;6.738;2022-08-21T00:44:58;18.00;60.80
53268;DHT22;39156;51.176;6.738;2022-08-21T00:47:24;18.00;61.10
53268;DHT22;39156;51.176;6.738;2022-08-21T00:49:50;17.90;61.20
53268;DHT22;39156;51.176;6.738;2022-08-21T00:52:20;17.90;61.40
53268;DHT22;39156;51.176;6.738;2022-08-21T00:54:49;17.90;61.80
53268;DHT22;39156;51.176;6.738;2022-08-21T00:57:20;17.80;61.60
53268;DHT22;39156;51.176;6.738;2022-08-21T00:59:50;17.80;62.60
53268;DHT22;39156;51.176;6.738;2022-08-21T01:02:17;17.70;61.80
53268;DHT22;39156;51.176;6.738;2022-08-21T01:04:43;17.70;61.90
53268;DHT22;39156;51.176;6.738;2022-08-21T01:07:10;17.60;62.60
53268;DHT22;39156;51.176;6.738;2022-08-21T01:09:36;17.60;62.10
53268;DHT22;39156;51.176;6.738;2022-08-21T01:12:03;17.60;62.10
53268;DHT22;39156;51.176;6.738;2022-08-21T01:14:29;17.60;62.20
53268;DHT22;39156;51.176;6.738;2022-08-21T01:16:56;17.50;62.20
53268;DHT22;39156;51.176;6.738;2022-08-21T01:19:23;17.50;62.20
53268;DHT22;39156;51.176;6.738;2022-08-21T01:21:50;17.40;62.20
53268;DHT22;39156;51.176;6.738;2022-08-21T01:24:16;17.40;62.20
53268;DHT22;39156;51.176;6.738;2022-08-21T01:26:43;17.40;62.30
53268;DHT22;39156;51.176;6.738;2022-08-21T01:32:16;17.30;62.40
53268;DHT22;39156;51.176;6.738;2022-08-21T01:34:46;17.30;62.10
53268;DHT22;39156;51.176;6.738;2022-08-21T01:37:13;17.30;62.20
53268;DHT22;39156;51.176;6.738;2022-08-21T01:39:41;17.30;62.20
53268;DHT22;39156;51.176;6.738;2022-08-21T01:42:07;17.20;62.30
53268;DHT22;39156;51.176;6.738;2022-08-21T01:44:34;17.20;62.20
53268;DHT22;39156;51.176;6.738;2022-08-21T01:47:06;17.20;62.30
53268;DHT22;39156;51.176;6.738;2022-08-21T01:49:34;17.20;62.30
53268;DHT22;39156;51.176;6.738;2022-08-21T01:52:01;17.10;62.30
53268;DHT22;39156;51.176;6.738;2022-08-21T01:54:28;17.10;62.40
53268;DHT22;39156;51.176;6.738;2022-08-21T01:56:54;17.10;62.40
53268;DHT22;39156;51.176;6.738;2022-08-21T01:59:20;17.00;62.50
53268;DHT22;39156;51.176;6.738;2022-08-21T02:01:47;17.00;62.60
53268;DHT22;39156;51.176;6.738;2022-08-21T02:04:14;17.00;62.60
53268;DHT22;39156;51.176;6.738;2022-08-21T02:06:40;16.90;62.70
53268;DHT22;39156;51.176;6.738;2022-08-21T02:09:07;16.80;62.60
53268;DHT22;39156;51.176;6.738;2022-08-21T02:11:35;16.80;62.80
53268;DHT22;39156;51.176;6.738;2022-08-21T02:14:01;16.80;62.80
53268;DHT22;39156;51.176;6.738;2022-08-21T02:16:27;16.80;62.80
53268;DHT22;39156;51.176;6.738;2022-08-21T02:18:53;16.70;62.70
53268;DHT22;39156;51.176;6.738;2022-08-21T02:21:18;16.70;63.00
53268;DHT22;39156;51.176;6.738;2022-08-21T02:23:44;16.70;63.10
53268;DHT22;39156;51.176;6.738;2022-08-21T02:26:11;16.60;63.00
53268;DHT22;39156;51.176;6.738;2022-08-21T02:28:37;16.60;63.10
53268;DHT22;39156;51.176;6.738;2022-08-21T02:31:04;16.60;63.10
53268;DHT22;39156;51.176;6.738;2022-08-21T02:33:31;16.60;63.10
53268;DHT22;39156;51.176;6.738;2022-08-21T02:35:57;16.50;63.10
53268;DHT22;39156;51.176;6.738;2022-08-21T02:38:27;16.50;63.10
53268;DHT22;39156;51.176;6.738;2022-08-21T02:40:57;16.50;63.30
53268;DHT22;39156;51.176;6.738;2022-08-21T02:43:25;16.40;63.30
53268;DHT22;39156;51.176;6.738;2022-08-21T02:45:52;16.40;63.60
53268;DHT22;39156;51.176;6.738;2022-08-21T02:48:24;16.40;63.70
53268;DHT22;39156;51.176;6.738;2022-08-21T02:50:59;16.30;63.70
53268;DHT22;39156;51.176;6.738;2022-08-21T02:53:27;16.40;63.80
53268;DHT22;39156;51.176;6.738;2022-08-21T02:55:56;16.30;63.70
53268;DHT22;39156;51.176;6.738;2022-08-21T02:58:27;16.30;63.80
53268;DHT22;39156;51.176;6.738;2022-08-21T03:00:56;16.30;63.90
53268;DHT22;39156;51.176;6.738;2022-08-21T03:03:23;16.20;63.80
53268;DHT22;39156;51.176;6.738;2022-08-21T03:05:50;16.30;63.80
53268;DHT22;39156;51.176;6.738;2022-08-21T03:08:18;16.20;63.70
53268;DHT22;39156;51.176;6.738;2022-08-21T03:10:46;16.20;63.80
53268;DHT22;39156;51.176;6.738;2022-08-21T03:13:14;16.20;63.90
53268;DHT22;39156;51.176;6.738;2022-08-21T03:15:40;16.20;63.90
53268;DHT22;39156;51.176;6.738;2022-08-21T03:18:07;16.20;64.00
53268;DHT22;39156;51.176;6.738;2022-08-21T03:20:35;16.10;64.00
53268;DHT22;39156;51.176;6.738;2022-08-21T03:23:03;16.10;64.10
53268;DHT22;39156;51.176;6.738;2022-08-21T03:25:30;16.10;64.10
53268;DHT22;39156;51.176;6.738;2022-08-21T03:28:00;16.00;64.10
53268;DHT22;39156;51.176;6.738;2022-08-21T03:30:26;16.00;64.30
53268;DHT22;39156;51.176;6.738;2022-08-21T03:32:52;16.00;64.40
53268;DHT22;39156;51.176;6.738;2022-08-21T03:35:19;16.00;64.50
53268;DHT22;39156;51.176;6.738;2022-08-21T03:37:46;15.90;64.50
53268;DHT22;39156;51.176;6.738;2022-08-21T03:40:13;15.90;64.70
53268;DHT22;39156;51.176;6.738;2022-08-21T03:42:41;15.90;64.80
53268;DHT22;39156;51.176;6.738;2022-08-21T03:45:08;15.90;64.80
53268;DHT22;39156;51.176;6.738;2022-08-21T03:47:34;15.80;64.80
53268;DHT22;39156;51.176;6.738;2022-08-21T03:50:01;15.90;64.80
53268;DHT22;39156;51.176;6.738;2022-08-21T03:52:28;15.80;64.80
53268;DHT22;39156;51.176;6.738;2022-08-21T03:54:54;15.80;64.80
53268;DHT22;39156;51.176;6.738;2022-08-21T03:57:20;15.80;64.90
53268;DHT22;39156;51.176;6.738;2022-08-21T03:59:46;15.80;64.90
53268;DHT22;39156;51.176;6.738;2022-08-21T04:02:14;15.80;64.80
53268;DHT22;39156;51.176;6.738;2022-08-21T04:04:42;15.70;64.80
53268;DHT22;39156;51.176;6.738;2022-08-21T04:07:08;15.70;64.80
53268;DHT22;39156;51.176;6.738;2022-08-21T04:09:34;15.70;64.70
53268;DHT22;39156;51.176;6.738;2022-08-21T04:12:00;15.60;64.80
53268;DHT22;39156;51.176;6.738;2022-08-21T04:14:26;15.60;65.00
53268;DHT22;39156;51.176;6.738;2022-08-21T04:16:51;15.60;65.20
53268;DHT22;39156;51.176;6.738;2022-08-21T04:21:48;15.50;65.50
53268;DHT22;39156;51.176;6.738;2022-08-21T04:24:15;15.50;65.50
53268;DHT22;39156;51.176;6.738;2022-08-21T04:26:40;15.50;65.50
53268;DHT22;39156;51.176;6.738;2022-08-21T04:29:06;15.40;65.60
53268;DHT22;39156;51.176;6.738;2022-08-21T04:31:33;15.40;65.70
53268;DHT22;39156;51.176;6.738;2022-08-21T04:34:00;15.40;65.90
53268;DHT22;39156;51.176;6.738;2022-08-21T04:36:26;15.40;66.10
53268;DHT22;39156;51.176;6.738;2022-08-21T04:38:52;15.40;66.10
53268;DHT22;39156;51.176;6.738;2022-08-21T04:41:17;15.40;66.20
53268;DHT22;39156;51.176;6.738;2022-08-21T04:43:43;15.40;66.30
53268;DHT22;39156;51.176;6.738;2022-08-21T04:46:09;15.40;66.40
53268;DHT22;39156;51.176;6.738;2022-08-21T04:48:36;15.40;66.50
53268;DHT22;39156;51.176;6.738;2022-08-21T04:51:14;15.40;66.60
53268;DHT22;39156;51.176;6.738;2022-08-21T04:53:46;15.40;67.00
53268;DHT22;39156;51.176;6.738;2022-08-21T04:56:20;15.40;66.60
53268;DHT22;39156;51.176;6.738;2022-08-21T04:58:50;15.50;66.90
53268;DHT22;39156;51.176;6.738;2022-08-21T05:01:22;15.50;66.80
53268;DHT22;39156;51.176;6.738;2022-08-21T05:03:51;15.60;66.90
53268;DHT22;39156;51.176;6.738;2022-08-21T05:06:19;15.60;66.80
53268;DHT22;39156;51.176;6.738;2022-08-21T05:08:48;15.70;66.70
53268;DHT22;39156;51.176;6.738;2022-08-21T05:11:14;15.70;66.50
53268;DHT22;39156;51.176;6.738;2022-08-21T05:13:40;15.70;66.50
53268;DHT22;39156;51.176;6.738;2022-08-21T05:16:07;15.80;66.60
53268;DHT22;39156;51.176;6.738;2022-08-21T05:18:33;15.90;66.80
53268;DHT22;39156;51.176;6.738;2022-08-21T05:20:58;16.10;66.90
53268;DHT22;39156;51.176;6.738;2022-08-21T05:23:24;16.30;66.70
53268;DHT22;39156;51.176;6.738;2022-08-21T05:25:51;16.50;66.30
53268;DHT22;39156;51.176;6.738;2022-08-21T05:28:17;16.80;65.50
53268;DHT22;39156;51.176;6.738;2022-08-21T05:30:43;17.00;64.50
53268;DHT22;39156;51.176;6.738;2022-08-21T05:33:09;17.20;63.70
53268;DHT22;39156;51.176;6.738;2022-08-21T05:35:36;17.30;63.20
53268;DHT22;39156;51.176;6.738;2022-08-21T05:38:03;17.30;62.70
53268;DHT22;39156;51.176;6.738;2022-08-21T05:40:29;17.40;62.30
53268;DHT22;39156;51.176;6.738;2022-08-21T05:42:55;17.40;63.40
53268;DHT22;39156;51.176;6.738;2022-08-21T05:45:23;17.40;61.90
53268;DHT22;39156;51.176;6.738;2022-08-21T05:47:53;17.30;61.60
53268;DHT22;39156;51.176;6.738;2022-08-21T05:50:19;17.30;61.50
53268;DHT22;39156;51.176;6.738;2022-08-21T05:52:45;17.30;61.50
53268;DHT22;39156;51.176;6.738;2022-08-21T05:55:12;17.20;61.30
53268;DHT22;39156;51.176;6.738;2022-08-21T05:57:37;17.20;61.30
53268;DHT22;39156;51.176;6.738;2022-08-21T06:00:09;17.10;61.20
53268;DHT22;39156;51.176;6.738;2022-08-21T06:02:38;17.10;60.80
53268;DHT22;39156;51.176;6.738;2022-08-21T06:05:05;17.10;61.20
53268;DHT22;39156;51.176;6.738;2022-08-21T06:07:31;17.10;61.20
53268;DHT22;39156;51.176;6.738;2022-08-21T06:09:56;17.00;61.90
53268;DHT22;39156;51.176;6.738;2022-08-21T06:12:22;17.10;61.30
53268;DHT22;39156;51.176;6.738;2022-08-21T06:14:48;17.10;61.50
53268;DHT22;39156;51.176;6.738;2022-08-21T06:17:16;17.10;61.30
53268;DHT22;39156;51.176;6.738;2022-08-21T06:19:41;17.10;61.40
53268;DHT22;39156;51.176;6.738;2022-08-21T06:22:07;17.20;61.50
53268;DHT22;39156;51.176;6.738;2022-08-21T06:24:33;17.20;61.20
53268;DHT22;39156;51.176;6.738;2022-08-21T06:27:04;17.20;61.20
53268;DHT22;39156;51.176;6.738;2022-08-21T06:29:31;17.30;61.30
53268;DHT22;39156;51.176;6.738;2022-08-21T06:31:57;17.40;61.00
53268;DHT22;39156;51.176;6.738;2022-08-21T06:34:24;17.40;60.80
53268;DHT22;39156;51.176;6.738;2022-08-21T06:36:49;17.50;60.50
53268;DHT22;39156;51.176;6.738;2022-08-21T06:39:15;17.60;60.60
53268;DHT22;39156;51.176;6.738;2022-08-21T06:41:41;17.70;61.50
53268;DHT22;39156;51.176;6.738;2022-08-21T06:44:06;18.00;62.40
53268;DHT22;39156;51.176;6.738;2022-08-21T06:46:32;18.40;63.20
53268;DHT22;39156;51.176;6.738;2022-08-21T06:48:58;18.90;63.10
53268;DHT22;39156;51.176;6.738;2022-08-21T06:51:24;19.60;62.50
53268;DHT22;39156;51.176;6.738;2022-08-21T06:53:51;20.30;61.70
53268;DHT22;39156;51.176;6.738;2022-08-21T06:56:17;21.00;60.50
53268;DHT22;39156;51.176;6.738;2022-08-21T06:58:43;21.70;59.70
53268;DHT22;39156;51.176;6.738;2022-08-21T07:01:09;22.50;58.60
53268;DHT22;39156;51.176;6.738;2022-08-21T07:03:38;23.20;61.40
53268;DHT22;39156;51.176;6.738;2022-08-21T07:06:07;23.90;56.80
53268;DHT22;39156;51.176;6.738;2022-08-21T07:08:33;24.50;55.40
53268;DHT22;39156;51.176;6.738;2022-08-21T07:11:01;25.20;53.90
53268;DHT22;39156;51.176;6.738;2022-08-21T07:13:29;25.70;52.20
53268;DHT22;39156;51.176;6.738;2022-08-21T07:15:55;26.40;50.90
53268;DHT22;39156;51.176;6.738;2022-08-21T07:18:21;26.90;50.10
53268;DHT22;39156;51.176;6.738;2022-08-21T07:20:47;27.50;49.10
53268;DHT22;39156;51.176;6.738;2022-08-21T07:23:24;27.90;48.60
53268;DHT22;39156;51.176;6.738;2022-08-21T07:25:54;28.40;46.00
53268;DHT22;39156;51.176;6.738;2022-08-21T07:28:20;28.90;46.30
53268;DHT22;39156;51.176;6.738;2022-08-21T07:30:46;29.30;45.20
53268;DHT22;39156;51.176;6.738;2022-08-21T07:33:16;29.60;44.20
53268;DHT22;39156;51.176;6.738;2022-08-21T07:35:41;30.00;43.70
53268;DHT22;39156;51.176;6.738;2022-08-21T07:38:07;30.40;43.00
53268;DHT22;39156;51.176;6.738;2022-08-21T07:40:33;30.80;42.00
53268;DHT22;39156;51.176;6.738;2022-08-21T07:42:59;31.10;41.60
53268;DHT22;39156;51.176;6.738;2022-08-21T07:45:25;31.30;41.00
53268;DHT22;39156;51.176;6.738;2022-08-21T07:47:51;31.60;40.40
53268;DHT22;39156;51.176;6.738;2022-08-21T07:50:18;31.90;39.90
53268;DHT22;39156;51.176;6.738;2022-08-21T07:52:44;32.20;39.20
53268;DHT22;39156;51.176;6.738;2022-08-21T07:55:12;32.40;38.90
53268;DHT22;39156;51.176;6.738;2022-08-21T07:57:40;32.60;38.50
53268;DHT22;39156;51.176;6.738;2022-08-21T08:00:09;32.80;38.20
53268;DHT22;39156;51.176;6.738;2022-08-21T08:02:37;33.00;37.20
53268;DHT22;39156;51.176;6.738;2022-08-21T08:05:06;33.30;37.10
53268;DHT22;39156;51.176;6.738;2022-08-21T08:07:34;33.50;36.40
53268;DHT22;39156;51.176;6.738;2022-08-21T08:10:02;33.60;36.00
53268;DHT22;39156;51.176;6.738;2022-08-21T08:12:29;33.70;35.40
53268;DHT22;39156;51.176;6.738;2022-08-21T08:15:01;33.80;35.50
53268;DHT22;39156;51.176;6.738;2022-08-21T08:17:28;33.90;34.40
53268;DHT22;39156;51.176;6.738;2022-08-21T08:19:54;34.00;35.10
53268;DHT22;39156;51.176;6.738;2022-08-21T08:22:22;34.10;35.20
53268;DHT22;39156;51.176;6.738;2022-08-21T08:24:50;34.20;34.50
53268;DHT22;39156;51.176;6.738;2022-08-21T08:27:16;34.30;34.50
53268;DHT22;39156;51.176;6.738;2022-08-21T08:29:43;34.40;34.40
53268;DHT22;39156;51.176;6.738;2022-08-21T08:32:09;34.60;34.20
53268;DHT22;39156;51.176;6.738;2022-08-21T08:34:36;34.80;34.20
53268;DHT22;39156;51.176;6.738;2022-08-21T08:37:06;34.90;33.80
53268;DHT22;39156;51.176;6.738;2022-08-21T08:39:33;35.10;33.70
53268;DHT22;39156;51.176;6.738;2022-08-21T08:42:07;35.20;33.50
53268;DHT22;39156;51.176;6.738;2022-08-21T08:44:42;35.30;32.60
53268;DHT22;39156;51.176;6.738;2022-08-21T08:47:13;35.40;32.70
53268;DHT22;39156;51.176;6.738;2022-08-21T08:49:49;35.50;32.40
53268;DHT22;39156;51.176;6.738;2022-08-21T08:52:26;35.60;32.00
53268;DHT22;39156;51.176;6.738;2022-08-21T08:57:48;35.50;32.00
53268;DHT22;39156;51.176;6.738;2022-08-21T09:00:18;35.60;32.20
53268;DHT22;39156;51.176;6.738;2022-08-21T09:02:46;35.50;31.80
53268;DHT22;39156;51.176;6.738;2022-08-21T09:11:13;34.90;31.90
53268;DHT22;39156;51.176;6.738;2022-08-21T09:20:48;34.70;32.70
53268;DHT22;39156;51.176;6.738;2022-08-21T09:23:43;34.70;33.00
53268;DHT22;39156;51.176;6.738;2022-08-21T09:26:20;34.80;32.30
53268;DHT22;39156;51.176;6.738;2022-08-21T09:28:53;34.80;32.30
53268;DHT22;39156;51.176;6.738;2022-08-21T09:31:33;34.90;31.70
53268;DHT22;39156;51.176;6.738;2022-08-21T09:39:08;35.30;31.90
53268;DHT22;39156;51.176;6.738;2022-08-21T09:41:36;35.40;31.80
53268;DHT22;39156;51.176;6.738;2022-08-21T09:44:04;35.50;31.60
53268;DHT22;39156;51.176;6.738;2022-08-21T09:46:31;35.60;31.30
53268;DHT22;39156;51.176;6.738;2022-08-21T09:49:00;35.60;31.50
53268;DHT22;39156;51.176;6.738;2022-08-21T09:51:32;35.60;31.20
53268;DHT22;39156;51.176;6.738;2022-08-21T09:56:38;35.70;31.00
53268;DHT22;39156;51.176;6.738;2022-08-21T09:59:35;35.80;31.20
53268;DHT22;39156;51.176;6.738;2022-08-21T10:04:56;35.70;31.00
53268;DHT22;39156;51.176;6.738;2022-08-21T10:07:25;35.60;30.50
53268;DHT22;39156;51.176;6.738;2022-08-21T10:10:00;35.60;30.80
53268;DHT22;39156;51.176;6.738;2022-08-21T10:13:03;35.50;30.60
53268;DHT22;39156;51.176;6.738;2022-08-21T10:15:48;35.40;31.00
53268;DHT22;39156;51.176;6.738;2022-08-21T10:24:00;35.40;30.50
53268;DHT22;39156;51.176;6.738;2022-08-21T10:35:19;34.50;30.10
53268;DHT22;39156;51.176;6.738;2022-08-21T10:43:26;33.20;31.20
53268;DHT22;39156;51.176;6.738;2022-08-21T10:46:12;32.90;31.20
53268;DHT22;39156;51.176;6.738;2022-08-21T10:48:59;32.50;31.80
53268;DHT22;39156;51.176;6.738;2022-08-21T10:51:53;32.10;31.90
53268;DHT22;39156;51.176;6.738;2022-08-21T10:54:52;31.80;32.20
53268;DHT22;39156;51.176;6.738;2022-08-21T11:00:29;31.30;32.50
53268;DHT22;39156;51.176;6.738;2022-08-21T11:05:48;30.90;33.00
53268;DHT22;39156;51.176;6.738;2022-08-21T11:08:30;30.80;33.10
53268;DHT22;39156;51.176;6.738;2022-08-21T11:11:10;30.70;33.20
53268;DHT22;39156;51.176;6.738;2022-08-21T11:13:47;30.60;33.40
53268;DHT22;39156;51.176;6.738;2022-08-21T11:21:58;30.40;33.50
53268;DHT22;39156;51.176;6.738;2022-08-21T11:24:35;30.30;33.90
53268;DHT22;39156;51.176;6.738;2022-08-21T11:27:36;30.20;33.60
53268;DHT22;39156;51.176;6.738;2022-08-21T11:30:08;30.10;33.70
53268;DHT22;39156;51.176;6.738;2022-08-21T11:35:51;30.00;34.20
53268;DHT22;39156;51.176;6.738;2022-08-21T11:41:13;29.80;34.10
53268;DHT22;39156;51.176;6.738;2022-08-21T11:43:48;29.70;34.00
53268;DHT22;39156;51.176;6.738;2022-08-21T11:46:31;29.60;34.10
53268;DHT22;39156;51.176;6.738;2022-08-21T11:55:15;29.50;34.70
53268;DHT22;39156;51.176;6.738;2022-08-21T11:58:02;29.50;34.50
53268;DHT22;39156;51.176;6.738;2022-08-21T12:00:49;29.50;34.50
53268;DHT22;39156;51.176;6.738;2022-08-21T12:03:31;29.50;34.60
53268;DHT22;39156;51.176;6.738;2022-08-21T12:06:02;29.50;34.20
53268;DHT22;39156;51.176;6.738;2022-08-21T12:08:42;29.50;34.30
53268;DHT22;39156;51.176;6.738;2022-08-21T12:11:23;29.50;34.50
53268;DHT22;39156;51.176;6.738;2022-08-21T12:14:20;29.50;34.50
53268;DHT22;39156;51.176;6.738;2022-08-21T12:16:47;29.40;34.30
53268;DHT22;39156;51.176;6.738;2022-08-21T12:19:29;29.40;34.30
53268;DHT22;39156;51.176;6.738;2022-08-21T12:24:38;29.30;34.20
53268;DHT22;39156;51.176;6.738;2022-08-21T12:30:17;29.20;34.90
53268;DHT22;39156;51.176;6.738;2022-08-21T12:32:55;29.20;34.50
53268;DHT22;39156;51.176;6.738;2022-08-21T12:35:31;29.20;34.70
53268;DHT22;39156;51.176;6.738;2022-08-21T12:38:03;29.20;34.50
53268;DHT22;39156;51.176;6.738;2022-08-21T12:40:43;29.10;34.60
53268;DHT22;39156;51.176;6.738;2022-08-21T12:43:18;29.10;35.00
53268;DHT22;39156;51.176;6.738;2022-08-21T12:45:48;29.00;34.50
53268;DHT22;39156;51.176;6.738;2022-08-21T12:48:29;29.00;35.00
53268;DHT22;39156;51.176;6.738;2022-08-21T12:51:29;29.00;35.20
53268;DHT22;39156;51.176;6.738;2022-08-21T12:53:59;29.00;35.20
53268;DHT22;39156;51.176;6.738;2022-08-21T12:56:30;29.00;34.90
53268;DHT22;39156;51.176;6.738;2022-08-21T12:59:06;29.00;34.80
53268;DHT22;39156;51.176;6.738;2022-08-21T13:01:38;29.00;34.20
53268;DHT22;39156;51.176;6.738;2022-08-21T13:04:15;28.90;34.70
53268;DHT22;39156;51.176;6.738;2022-08-21T13:06:54;28.90;34.20
53268;DHT22;39156;51.176;6.738;2022-08-21T13:09:27;28.90;34.40
53268;DHT22;39156;51.176;6.738;2022-08-21T13:11:54;28.90;34.00
53268;DHT22;39156;51.176;6.738;2022-08-21T13:16:55;28.90;34.20
53268;DHT22;39156;51.176;6.738;2022-08-21T13:19:22;28.80;34.20
53268;DHT22;39156;51.176;6.738;2022-08-21T13:21:49;28.80;34.40
53268;DHT22;39156;51.176;6.738;2022-08-21T13:24:32;28.80;34.70
53268;DHT22;39156;51.176;6.738;2022-08-21T13:27:00;28.80;34.80
53268;DHT22;39156;51.176;6.738;2022-08-21T13:29:32;28.70;34.80
53268;DHT22;39156;51.176;6.738;2022-08-21T13:32:04;28.70;34.40
53268;DHT22;39156;51.176;6.738;2022-08-21T13:34:37;28.70;34.50
53268;DHT22;39156;51.176;6.738;2022-08-21T13:37:07;28.70;34.80
53268;DHT22;39156;51.176;6.738;2022-08-21T13:39:34;28.60;34.80
53268;DHT22;39156;51.176;6.738;2022-08-21T13:42:02;28.60;35.10
53268;DHT22;39156;51.176;6.738;2022-08-21T13:44:41;28.60;35.00
53268;DHT22;39156;51.176;6.738;2022-08-21T13:47:11;28.60;35.20
53268;DHT22;39156;51.176;6.738;2022-08-21T13:49:42;28.60;35.60
53268;DHT22;39156;51.176;6.738;2022-08-21T13:52:26;28.60;35.50
53268;DHT22;39156;51.176;6.738;2022-08-21T13:55:08;28.60;35.10
53268;DHT22;39156;51.176;6.738;2022-08-21T13:57:36;28.60;35.00
53268;DHT22;39156;51.176;6.738;2022-08-21T14:00:13;28.70;35.20
53268;DHT22;39156;51.176;6.738;2022-08-21T14:02:44;28.70;35.10
53268;DHT22;39156;51.176;6.738;2022-08-21T14:05:29;28.60;35.00
53268;DHT22;39156;51.176;6.738;2022-08-21T14:08:20;28.60;34.90
53268;DHT22;39156;51.176;6.738;2022-08-21T14:10:51;28.60;34.90
53268;DHT22;39156;51.176;6.738;2022-08-21T14:13:40;28.50;35.10
53268;DHT22;39156;51.176;6.738;2022-08-21T14:16:26;28.50;34.80
53268;DHT22;39156;51.176;6.738;2022-08-21T14:21:34;28.40;34.40
53268;DHT22;39156;51.176;6.738;2022-08-21T14:24:09;28.40;34.40
53268;DHT22;39156;51.176;6.738;2022-08-21T14:27:10;28.40;34.90
53268;DHT22;39156;51.176;6.738;2022-08-21T14:29:36;28.40;34.60
53268;DHT22;39156;51.176;6.738;2022-08-21T14:32:19;28.30;35.40
53268;DHT22;39156;51.176;6.738;2022-08-21T14:34:46;28.30;34.60
53268;DHT22;39156;51.176;6.738;2022-08-21T14:37:12;28.30;34.70
53268;DHT22;39156;51.176;6.738;2022-08-21T14:39:37;28.20;34.60
53268;DHT22;39156;51.176;6.738;2022-08-21T14:42:04;28.10;34.80
53268;DHT22;39156;51.176;6.738;2022-08-21T14:44:29;28.00;35.00
53268;DHT22;39156;51.176;6.738;2022-08-21T14:46:58;28.00;35.40
53268;DHT22;39156;51.176;6.738;2022-08-21T14:49:26;27.90;35.30
53268;DHT22;39156;51.176;6.738;2022-08-21T14:51:55;27.90;35.40
53268;DHT22;39156;51.176;6.738;2022-08-21T14:54:26;27.90;35.00
53268;DHT22;39156;51.176;6.738;2022-08-21T14:56:54;27.90;35.10
53268;DHT22;39156;51.176;6.738;2022-08-21T14:59:20;27.90;35.20
53268;DHT22;39156;51.176;6.738;2022-08-21T15:01:46;27.90;35.40
53268;DHT22;39156;51.176;6.738;2022-08-21T15:04:12;28.00;35.90
53268;DHT22;39156;51.176;6.738;2022-08-21T15:06:38;28.00;35.30
53268;DHT22;39156;51.176;6.738;2022-08-21T15:09:04;28.00;35.50
53268;DHT22;39156;51.176;6.738;2022-08-21T15:11:32;28.00;35.40
53268;DHT22;39156;51.176;6.738;2022-08-21T15:14:05;28.00;35.90
53268;DHT22;39156;51.176;6.738;2022-08-21T15:16:33;28.00;35.40
53268;DHT22;39156;51.176;6.738;2022-08-21T15:19:00;28.00;35.40
53268;DHT22;39156;51.176;6.738;2022-08-21T15:21:25;27.90;35.40
53268;DHT22;39156;51.176;6.738;2022-08-21T15:23:51;27.90;35.40
53268;DHT22;39156;51.176;6.738;2022-08-21T15:26:18;27.80;35.30
53268;DHT22;39156;51.176;6.738;2022-08-21T15:28:44;27.80;35.80
53268;DHT22;39156;51.176;6.738;2022-08-21T15:31:09;27.80;35.40
53268;DHT22;39156;51.176;6.738;2022-08-21T15:33:35;27.80;35.60
53268;DHT22;39156;51.176;6.738;2022-08-21T15:36:01;27.80;36.30
53268;DHT22;39156;51.176;6.738;2022-08-21T15:38:26;27.80;35.60
53268;DHT22;39156;51.176;6.738;2022-08-21T15:40:52;27.80;35.50
53268;DHT22;39156;51.176;6.738;2022-08-21T15:43:25;27.80;35.50
53268;DHT22;39156;51.176;6.738;2022-08-21T15:45:53;27.80;35.50
53268;DHT22;39156;51.176;6.738;2022-08-21T15:48:19;27.70;35.90
53268;DHT22;39156;51.176;6.738;2022-08-21T15:50:45;27.70;36.10
53268;DHT22;39156;51.176;6.738;2022-08-21T15:53:11;27.70;36.00
53268;DHT22;39156;51.176;6.738;2022-08-21T15:55:36;27.70;35.80
53268;DHT22;39156;51.176;6.738;2022-08-21T15:58:03;27.70;35.70
53268;DHT22;39156;51.176;6.738;2022-08-21T16:00:32;27.70;35.60
53268;DHT22;39156;51.176;6.738;2022-08-21T16:03:03;27.70;35.20
53268;DHT22;39156;51.176;6.738;2022-08-21T16:05:30;27.60;35.20
53268;DHT22;39156;51.176;6.738;2022-08-21T16:07:58;27.50;35.10
53268;DHT22;39156;51.176;6.738;2022-08-21T16:10:24;27.30;35.00
53268;DHT22;39156;51.176;6.738;2022-08-21T16:12:56;27.20;35.40
53268;DHT22;39156;51.176;6.738;2022-08-21T16:15:25;27.10;35.20
53268;DHT22;39156;51.176;6.738;2022-08-21T16:17:51;27.10;35.60
53268;DHT22;39156;51.176;6.738;2022-08-21T16:20:24;27.00;35.60
53268;DHT22;39156;51.176;6.738;2022-08-21T16:22:53;27.00;35.60
53268;DHT22;39156;51.176;6.738;2022-08-21T16:27:57;26.90;35.50
53268;DHT22;39156;51.176;6.738;2022-08-21T16:30:24;26.80;35.60
53268;DHT22;39156;51.176;6.738;2022-08-21T16:32:51;26.90;35.40
53268;DHT22;39156;51.176;6.738;2022-08-21T16:35:18;26.80;35.30
53268;DHT22;39156;51.176;6.738;2022-08-21T16:37:45;26.70;35.20
53268;DHT22;39156;51.176;6.738;2022-08-21T16:40:11;26.70;35.60
53268;DHT22;39156;51.176;6.738;2022-08-21T16:42:39;26.60;35.60
53268;DHT22;39156;51.176;6.738;2022-08-21T16:45:09;26.50;35.70
53268;DHT22;39156;51.176;6.738;2022-08-21T16:47:35;26.30;35.70
53268;DHT22;39156;51.176;6.738;2022-08-21T16:50:01;26.20;35.90
53268;DHT22;39156;51.176;6.738;2022-08-21T16:52:27;26.10;36.00
53268;DHT22;39156;51.176;6.738;2022-08-21T16:54:53;26.10;36.10
53268;DHT22;39156;51.176;6.738;2022-08-21T16:57:18;26.00;35.90
53268;DHT22;39156;51.176;6.738;2022-08-21T16:59:44;25.90;35.90
53268;DHT22;39156;51.176;6.738;2022-08-21T17:02:20;25.90;35.80
53268;DHT22;39156;51.176;6.738;2022-08-21T17:04:53;25.90;35.80
53268;DHT22;39156;51.176;6.738;2022-08-21T17:07:18;25.90;35.90
53268;DHT22;39156;51.176;6.738;2022-08-21T17:09:44;25.90;36.00
53268;DHT22;39156;51.176;6.738;2022-08-21T17:12:10;26.00;36.30
53268;DHT22;39156;51.176;6.738;2022-08-21T17:14:36;26.00;36.30